createdAt,value
2023-05-25T00:04:22.158Z,8.52
2023-05-25T00:09:32.892Z,8.49
2023-05-25T00:14:40.327Z,8.67
2023-05-25T00:19:45.500Z,8.55
2023-05-25T00:24:53.397Z,8.41
2023-05-25T00:29:59.901Z,8.29
2023-05-25T00:35:08.560Z,8.42
2023-05-25T00:40:19.038Z,8.39
2023-05-25T00:45:24.298Z,8.41
2023-05-25T00:50:43.693Z,8.14
2023-05-25T00:55:56.534Z,8.19
2023-05-25T01:01:12.331Z,8.04
2023-05-25T01:06:19.554Z,7.89
2023-05-25T01:11:32.358Z,7.96
2023-05-25T01:16:38.433Z,7.65
2023-05-25T01:21:52.199Z,7.90
2023-05-25T01:27:04.937Z,7.73
2023-05-25T01:32:11.764Z,7.82
2023-05-25T01:37:24.814Z,7.60
2023-05-25T01:42:31.272Z,7.62
2023-05-25T01:47:47.161Z,7.67
2023-05-25T01:53:02.954Z,7.60
2023-05-25T01:58:10.038Z,7.54
2023-05-25T02:03:15.630Z,7.49
2023-05-25T02:08:23.403Z,7.58
2023-05-25T02:13:28.669Z,7.84
2023-05-25T02:18:34.581Z,7.79
2023-05-25T02:23:42.397Z,7.71
2023-05-25T02:28:47.561Z,8.20
2023-05-25T02:33:52.719Z,8.33
2023-05-25T02:39:00.661Z,8.04
2023-05-25T02:44:05.985Z,8.25
2023-05-25T02:49:13.246Z,8.18
2023-05-25T02:54:21.877Z,7.82
2023-05-25T02:59:27.729Z,7.94
2023-05-25T03:04:37.790Z,7.53
2023-05-25T03:09:46.021Z,7.19
2023-05-25T03:14:51.297Z,7.00
2023-05-25T03:19:57.714Z,7.13
2023-05-25T03:25:07.753Z,7.05
2023-05-25T03:30:15.674Z,7.01
2023-05-25T03:35:21.497Z,7.18
2023-05-25T03:40:30.170Z,7.36
2023-05-25T03:45:38.619Z,7.40
2023-05-25T03:50:43.777Z,7.59
2023-05-25T03:55:55.581Z,7.59
2023-05-25T04:01:01.996Z,7.56
2023-05-25T04:06:09.109Z,7.72
2023-05-25T04:11:17.215Z,7.69
2023-05-25T04:16:22.639Z,7.91
2023-05-25T04:21:27.998Z,7.92
2023-05-25T04:26:36.032Z,8.33
2023-05-25T04:31:44.477Z,8.49
2023-05-25T04:37:15.490Z,9.02
2023-05-25T04:42:24.253Z,9.11
2023-05-25T04:47:32.808Z,9.52
2023-05-25T04:52:39.078Z,9.95
2023-05-25T04:57:47.392Z,10.58
2023-05-25T05:02:54.299Z,10.82
2023-05-25T05:08:03.861Z,12.33
2023-05-25T05:13:13.074Z,12.71
2023-05-25T05:18:32.109Z,13.37
2023-05-25T05:23:46.330Z,14.79
2023-05-25T05:28:57.654Z,15.92
2023-05-25T05:34:08.814Z,16.11
2023-05-25T05:39:14.618Z,17.36
2023-05-25T05:44:27.896Z,17.80
2023-05-25T05:49:35.387Z,18.79
2023-05-25T05:54:43.773Z,19.85
2023-05-25T05:59:55.940Z,20.59
2023-05-25T06:05:06.343Z,19.76
2023-05-25T06:10:13.311Z,20.44
2023-05-25T06:15:21.581Z,20.63
2023-05-25T06:20:33.146Z,22.16
2023-05-25T06:25:40.609Z,21.94
2023-05-25T06:30:48.540Z,21.05
2023-05-25T06:36:00.675Z,22.77
2023-05-25T06:41:13.003Z,23.31
2023-05-25T06:46:21.828Z,23.03
2023-05-25T06:51:34.253Z,22.72
2023-05-25T06:56:42.164Z,21.31
2023-05-25T07:01:55.657Z,20.01
2023-05-25T07:07:13.320Z,21.17
2023-05-25T07:12:21.729Z,19.47
2023-05-25T07:17:29.648Z,19.85
2023-05-25T07:22:34.914Z,19.89
2023-05-25T07:27:42.949Z,19.09
2023-05-25T07:32:51.378Z,19.27
2023-05-25T07:38:05.687Z,19.33
2023-05-25T07:43:25.168Z,19.42
2023-05-25T07:48:33.382Z,20.27
2023-05-25T07:53:38.579Z,19.36
2023-05-25T07:58:49.116Z,20.06
2023-05-25T08:03:56.947Z,20.55
2023-05-25T08:09:02.393Z,19.63
2023-05-25T08:14:08.339Z,19.94
2023-05-25T08:19:16.285Z,18.22
2023-05-25T08:24:22.112Z,18.68
2023-05-25T08:29:27.233Z,18.85
2023-05-25T08:34:35.001Z,18.63
2023-05-25T08:39:42.298Z,19.77
2023-05-25T08:44:50.540Z,19.48
2023-05-25T08:49:59.747Z,19.39
2023-05-25T08:55:09.677Z,18.50
2023-05-25T09:00:18.817Z,19.43
2023-05-25T09:05:28.687Z,19.52
2023-05-25T09:10:36.410Z,19.80
2023-05-25T09:15:42.232Z,18.86
2023-05-25T09:20:52.425Z,19.33
2023-05-25T09:25:58.281Z,20.86
2023-05-25T09:31:04.026Z,20.46
2023-05-25T09:36:12.864Z,19.96
2023-05-25T09:41:19.052Z,20.69
2023-05-25T09:46:24.235Z,19.91
2023-05-25T09:51:34.061Z,20.14
2023-05-25T09:56:40.480Z,19.47
2023-05-25T10:01:48.320Z,19.69
2023-05-25T10:06:57.364Z,20.11
2023-05-25T10:12:03.723Z,21.34
2023-05-25T10:17:10.216Z,20.44
2023-05-25T10:22:24.595Z,20.44
2023-05-25T10:27:44.658Z,21.68
2023-05-25T10:32:52.929Z,20.28
2023-05-25T10:38:05.259Z,21.56
2023-05-25T10:43:11.554Z,20.06
2023-05-25T10:48:17.106Z,21.14
2023-05-25T10:53:26.330Z,20.93
2023-05-25T10:58:34.494Z,20.16
2023-05-25T11:04:00.338Z,20.33
2023-05-25T11:09:08.537Z,21.20
2023-05-25T11:14:27.168Z,22.07
2023-05-25T11:19:42.699Z,21.47
2023-05-25T11:24:56.869Z,20.95
2023-05-25T11:30:02.927Z,21.15
2023-05-25T11:35:11.267Z,20.86
2023-05-25T11:40:19.011Z,20.99
2023-05-25T11:45:26.691Z,21.74
2023-05-25T11:50:32.375Z,22.24
2023-05-25T11:55:43.974Z,21.73
2023-05-25T12:00:53.127Z,21.20
2023-05-25T12:05:58.430Z,20.98
2023-05-25T12:11:06.378Z,20.69
2023-05-25T12:16:11.795Z,21.49
2023-05-25T12:21:20.099Z,21.00
2023-05-25T12:26:34.288Z,21.84
2023-05-25T12:31:41.533Z,22.04
2023-05-25T12:36:49.165Z,21.87
2023-05-25T12:41:57.614Z,21.41
2023-05-25T12:47:14.689Z,21.19
2023-05-25T12:52:48.364Z,21.17
2023-05-25T12:57:56.382Z,20.90
2023-05-25T13:03:02.444Z,22.50
2023-05-25T13:08:10.705Z,22.13
2023-05-25T13:13:18.889Z,22.79
2023-05-25T13:18:25.708Z,22.49
2023-05-25T13:23:35.505Z,22.48
2023-05-25T13:28:44.082Z,22.87
2023-05-25T13:33:52.474Z,22.21
2023-05-25T13:38:59.376Z,21.95
2023-05-25T13:44:07.303Z,22.64
2023-05-25T13:49:14.024Z,22.21
2023-05-25T13:54:19.286Z,22.25
2023-05-25T13:59:31.753Z,21.70
2023-05-25T14:04:41.949Z,21.86
2023-05-25T14:09:47.078Z,22.50
2023-05-25T14:14:55.053Z,22.31
2023-05-25T14:20:02.933Z,22.08
2023-05-25T14:25:09.696Z,21.45
2023-05-25T14:30:17.773Z,22.14
2023-05-25T14:35:25.077Z,22.13
2023-05-25T14:40:30.512Z,22.39
2023-05-25T14:45:38.878Z,21.76
2023-05-25T14:50:45.386Z,22.20
2023-05-25T14:55:50.556Z,22.32
2023-05-25T15:00:58.321Z,22.51
2023-05-25T15:06:03.510Z,21.82
2023-05-25T15:11:08.654Z,22.51
2023-05-25T15:16:17.533Z,22.47
2023-05-25T15:21:23.483Z,22.54
2023-05-25T15:26:31.026Z,22.45
2023-05-25T15:31:38.896Z,22.20
2023-05-25T15:36:47.108Z,21.83
2023-05-25T15:41:52.233Z,22.03
2023-05-25T15:47:00.412Z,21.91
2023-05-25T15:52:06.911Z,22.01
2023-05-25T15:57:13.313Z,22.07
2023-05-25T16:02:21.234Z,22.11
2023-05-25T16:07:26.430Z,22.04
2023-05-25T16:12:40.012Z,21.66
2023-05-25T16:17:47.845Z,22.24
2023-05-25T16:22:53.084Z,21.97
2023-05-25T16:27:58.536Z,22.31
2023-05-25T16:33:07.963Z,22.20
2023-05-25T16:38:14.622Z,21.85
2023-05-25T16:43:19.834Z,21.65
2023-05-25T16:48:28.862Z,21.59
2023-05-25T16:53:34.094Z,21.93
2023-05-25T16:58:39.301Z,21.87
2023-05-25T17:03:47.186Z,21.54
2023-05-25T17:08:52.799Z,21.73
2023-05-25T17:13:58.159Z,21.20
2023-05-25T17:19:07.344Z,21.52
2023-05-25T17:24:12.563Z,20.91
2023-05-25T17:29:17.869Z,20.92
2023-05-25T17:34:25.905Z,20.59
2023-05-25T17:39:31.436Z,20.63
2023-05-25T17:44:40.278Z,20.41
2023-05-25T17:49:52.959Z,20.18
2023-05-25T17:54:58.049Z,20.13
2023-05-25T18:00:03.958Z,20.02
2023-05-25T18:05:20.060Z,19.80
2023-05-25T18:10:25.109Z,19.70
2023-05-25T18:15:30.561Z,19.44
2023-05-25T18:20:43.975Z,19.44
2023-05-25T18:25:49.061Z,19.33
2023-05-25T18:30:55.327Z,19.12
2023-05-25T18:36:03.036Z,19.22
2023-05-25T18:41:12.257Z,18.84
2023-05-25T18:46:17.406Z,18.66
2023-05-25T18:51:26.047Z,18.49
2023-05-25T18:56:31.280Z,18.50
2023-05-25T19:01:37.386Z,18.35
2023-05-25T19:06:45.261Z,18.32
2023-05-25T19:11:50.367Z,18.08
2023-05-25T19:16:55.729Z,18.14
2023-05-25T19:22:03.503Z,17.91
2023-05-25T19:27:08.704Z,18.11
2023-05-25T19:32:14.975Z,18.18
2023-05-25T19:37:23.572Z,18.08
2023-05-25T19:42:28.739Z,17.99
2023-05-25T19:47:34.009Z,17.87
2023-05-25T19:52:41.896Z,17.76
2023-05-25T19:57:47.760Z,17.81
2023-05-25T20:02:53.924Z,17.50
2023-05-25T20:08:02.558Z,17.54
2023-05-25T20:13:11.167Z,16.72
2023-05-25T20:18:16.344Z,16.56
2023-05-25T20:23:26.463Z,16.95
2023-05-25T20:28:34.174Z,16.80
2023-05-25T20:33:39.395Z,16.89
2023-05-25T20:38:49.847Z,16.69
2023-05-25T20:43:54.873Z,16.97
2023-05-25T20:48:59.940Z,16.64
2023-05-25T20:54:07.982Z,16.51
2023-05-25T20:59:13.940Z,16.66
2023-05-25T21:04:19.439Z,16.52
2023-05-25T21:09:29.640Z,16.39
2023-05-25T21:14:34.846Z,16.43
2023-05-25T21:19:39.953Z,15.71
2023-05-25T21:24:51.153Z,16.03
2023-05-25T21:29:56.638Z,16.11
2023-05-25T21:35:02.005Z,16.10
2023-05-25T21:40:12.996Z,15.93
2023-05-25T21:45:18.188Z,15.79
2023-05-25T21:50:23.329Z,15.77
2023-05-25T21:55:31.028Z,15.60
2023-05-25T22:00:38.110Z,15.46
2023-05-25T22:05:44.431Z,15.55
2023-05-25T22:10:53.415Z,15.67
2023-05-25T22:15:58.544Z,15.48
2023-05-25T22:21:03.707Z,15.04
2023-05-25T22:26:11.918Z,14.33
2023-05-25T22:31:17.484Z,14.68
2023-05-25T22:36:22.664Z,14.52
2023-05-25T22:41:32.007Z,15.00
2023-05-25T22:46:40.365Z,15.06
2023-05-25T22:51:45.714Z,15.07
2023-05-25T22:56:53.471Z,14.49
2023-05-25T23:02:02.850Z,14.26
2023-05-25T23:07:08.280Z,14.11
2023-05-25T23:12:15.956Z,14.27
2023-05-25T23:17:21.152Z,14.07
2023-05-25T23:22:26.281Z,13.71
2023-05-25T23:27:34.839Z,13.64
2023-05-25T23:32:39.923Z,13.76
2023-05-25T23:37:45.013Z,13.75
2023-05-25T23:42:53.966Z,13.82
2023-05-25T23:48:00.239Z,13.88
2023-05-25T23:53:08.161Z,13.32
2023-05-25T23:58:15.884Z,12.64
